Terminal Aerodrome Forecast
Issued by NWS Jackson, MS

Home | Current Version | Previous Version | Text Only | Print | Product List | Glossary On
Versions: 1 2 3 4 5 6 7 8 9 10 11 12 13 14 15 16
841
FTUS44 KJAN 230520
TAFHBG
TAF
KHBG 230520Z 2306/2406 31006KT P6SM SKC
     FM231000 31005KT 5SM BR BKN006
     FM231200 30005KT 5SM BR BKN008
     FM231500 32010KT P6SM FEW070
     FM231600 33010G16KT P6SM SKC
     FM240000 00000KT P6SM SKC=

USA.gov is the U.S. government's official web portal to all federal, state and local government web resources and services.